EGFF/CWL METAR and TAF weather

Enter ICAO airport designator
Station Type Date Time Source
EGFF METAR 2021/09/27 07:20 UTC NOAA

EGFF 270720Z 29013KT 9999 VCSH FEW019TCU SCT036 12/10 Q1005


Station Type Date Time Source
EGFF Decoded METAR 2021/09/27 07:20 UTC NOAA

Cardiff-Wales Airport, United Kingdom (EGFF) 51-24N 003-21W 0M
Sep 27, 2021 - 03:20 AM EDT / 2021.09.27 0720 UTC
Wind: from the WNW (290 degrees) at 15 MPH (13 KT):0
Visibility: greater than 7 mile(s):0
Sky conditions: partly cloudy
Weather: showers in the vicinity; Towering cumulus clouds observed
Temperature: 53 F (12 C)
Dew Point: 50 F (10 C)
Relative Humidity: 87%
Pressure (altimeter): 29.68 in. Hg (1005 hPa)
ob: EGFF 270720Z 29013KT 9999 VCSH FEW019TCU SCT036 12/10 Q1005
cycle: 7

Station Type Date Time Source
EGFF TAF 2021/09/27 06:09 UTC NOAA

TAF EGFF 270456Z 2706/2806 27014KT 9999 SCT022
TEMPO 2706/2719 27016G26KT 7000 SHRA PROB30
TEMPO 2706/2710 BKN014 PROB30
TEMPO 2708/2719 4000 +SHRA
BECMG 2718/2721 21013KT PROB30
TEMPO 2719/2806 20015G25KT 7000 SHRA

Example: see airport list